KSPB

Details ICAO KSPB (SPB)
Name SCAPPOOSE INDUSTRIAL AIRPARK
Region United States
Timezone America/Los_Angeles (UTC-8.0)
Plans Departing 7
Arriving 6
Stats Elevation 58 ft / 18 m (AMSL)
Location 45.771035° -122.861825°
Runways 1
Magnetic Variation 15.382° E
Sunrise 2017-12-14 15:46:38 UTC / 2017-12-14 07:46:38 Local
Sunset 2017-12-15 00:28:44 UTC / 2017-12-14 16:28:44 Local
Advertisement - Login to hide

Runways

ID Width Length Bearing (true) Bearing (mag) Surface Threshold Offset Overrun Length
15 98 ft / 30 m 5,105 ft / 1,556 m 168.68° 153.30° Asphalt 0 ft / 0 m 0 ft / 0 m
33 98 ft / 30 m 5,105 ft / 1,556 m 348.69° 333.31° Asphalt 0 ft / 0 m 16 ft / 5 m

Approach Navaids

Runway Type Ident Frequency Range Bearing (true) Bearing (mag) Slope Elevation
15 Localiser IFKO 111.10 MHz 18 nm / 33 km 168.69° 153.30° - 58 ft / 18 m (AMSL)
15 DME IFKO 111.10 MHz 18 nm / 33 km - - - 38 ft / 12 m (AMSL)

Map

Weather


0- 5 10 15 20 25 30 35+ Temperature / ° C

Clouds and Precipitation
Forecast for 2017-12-14 18:00 UTC. Updated 34 minutes ago

Ground ~20,000 ft ~40,000 ft Winds

METAR

KSPB 141253Z AUTO 24003KT 10SM CLR M02/M03 A3035 RMK AO2 SLP277 I1000 T10221028

TAF

Not found

Frequencies

Recorded 135.87 MHz ASOS
Clearance 121.65 MHz CLNC DEL
Unicom 122.80 MHz CTAF/UNICOM
Approach 133.00 MHz PORTLAND APP/DEP
Warning: Do not use this data for real-world aviation or navigation. No guarantee of current accuracy is given.